Hillsboro, TX

9:03 PM CST on February 26, 2017 (GMT -0600)
Hillsboro

Weather History for KINJ - August, 2014

Change the Weather History Date:

Thursday, August 28, 2014

  Actual Average (KACT) Record (KACT)
Temperature  
Mean Temperature 85 °F -  
Max Temperature 97 °F 93 °F 109 °F (2011)
Min Temperature 73 °F 71 °F 53 °F (1992)
Cooling Degree Days 20    
Growing Degree Days 35 (Base 50)    
Moisture  
Dew Point 64 °F    
Average Humidity 53    
Maximum Humidity 83    
Minimum Humidity 30    
Precipitation  
Precipitation 0.00 in - - ()
Sea Level Pressure  
Sea Level Pressure 29.93 in    
Wind  
Wind Speed 7 mph (SE)    
Max Wind Speed 15 mph    
Max Gust Speed 22 mph    
Visibility 10 miles    
Events      
Averages and records for this station are not official NWS values.
T = Trace of Precipitation, MM = Missing Value Source: NWS Daily Summary

Daily Weather History Graph

Daily Weather History Graph

Search for Another Location

Airport or City:

Trip Planner

Search our weather history database for the weather conditions in past years. The results will help you decide how hot, cold, wet, or windy it might be!

Date:

Astronomy

Aug. 28, 2014 Rise Set
Actual Time 7:01 AM CDT 7:57 PM CDT
Civil Twilight 6:36 AM CDT 8:22 PM CDT
Nautical Twilight 6:06 AM CDT 8:52 PM CDT
Astronomical Twilight 5:35 AM CDT 9:22 PM CDT
Moon 9:42 AM CDT (8/28) 9:36 PM CDT (8/28)
Length of Visible Light 13h 46m
Length of Day
12h 56m
Waxing Crescent, 9% of the Moon is Illuminated
Aug 28
Waxing Crescent
Sep 2
First Quarter
Sep 8
Full
Sep 15
Last Quarter
Sep 24
New

Hourly Weather History & Observations

Time (CDT) Temp. Heat Index Dew Point Humidity Pressure Visibility Wind Dir Wind Speed Gust Speed Precip Events Conditions
12:15 AM 78.8 °F - 57.4 °F 48% 30.00 in 10.0 mi East 6.9 mph - N/A   Clear
12:35 AM 77.9 °F - 58.1 °F 50% 30.00 in 10.0 mi East 5.8 mph - N/A   Clear
12:55 AM 77.9 °F - 59.5 °F 53% 30.00 in 10.0 mi ESE 6.9 mph - N/A   Clear
1:15 AM 78.8 °F - 61.2 °F 55% 29.99 in 10.0 mi ESE 6.9 mph - N/A   Clear
1:35 AM 78.3 °F - 61.3 °F 56% 29.99 in 10.0 mi ESE 6.9 mph - N/A   Clear
1:55 AM 78.1 °F - 61.7 °F 57% 29.99 in 10.0 mi East 8.1 mph - N/A   Clear
2:15 AM 78.8 °F - 62.6 °F 57% 29.98 in 10.0 mi ESE 6.9 mph - N/A   Clear
2:35 AM 78.4 °F - 62.6 °F 58% 29.98 in 10.0 mi SE 8.1 mph - N/A   Clear
2:55 AM 77.4 °F - 62.8 °F 61% 29.98 in 10.0 mi SE 6.9 mph - N/A   Clear
3:15 AM 77.0 °F - 63.7 °F 63% 29.98 in 10.0 mi SE 4.6 mph - N/A   Clear
3:35 AM 75.9 °F - 63.9 °F 66% 29.98 in 10.0 mi SE 5.8 mph - N/A   Clear
3:55 AM 75.6 °F - 64.6 °F 69% 29.97 in 10.0 mi SE 4.6 mph - N/A   Clear
4:15 AM 75.2 °F - 65.3 °F 71% 29.97 in 10.0 mi SE 5.8 mph - N/A   Clear
4:35 AM 76.1 °F - 66.2 °F 71% 29.97 in 10.0 mi SE 4.6 mph - N/A   Clear
4:55 AM 75.4 °F - 66.2 °F 73% 29.96 in 10.0 mi SE 5.8 mph - N/A   Clear
5:15 AM 75.2 °F - 66.6 °F 74% 29.96 in 10.0 mi SE 4.6 mph - N/A   Clear
5:35 AM 74.7 °F - 66.7 °F 76% 29.96 in 10.0 mi SE 4.6 mph - N/A   Clear
5:55 AM 74.3 °F - 66.9 °F 78% 29.96 in 10.0 mi SE 4.6 mph - N/A   Clear
6:15 AM 74.3 °F - 67.3 °F 79% 29.96 in 10.0 mi SE 4.6 mph - N/A   Clear
6:35 AM 73.9 °F - 67.5 °F 80% 29.97 in 10.0 mi SE 4.6 mph - N/A   Clear
6:55 AM 73.8 °F - 67.8 °F 82% 29.97 in 10.0 mi SE 3.5 mph - N/A   Clear
7:15 AM 73.4 °F - 67.6 °F 82% 29.97 in 10.0 mi Calm Calm - N/A   Clear
7:35 AM 73.8 °F - 68.2 °F 83% 29.97 in 10.0 mi SE 3.5 mph - N/A   Clear
7:55 AM 75.4 °F - 69.3 °F 81% 29.98 in 10.0 mi SSE 3.5 mph - N/A   Clear
8:15 AM 76.8 °F - 69.1 °F 77% 29.98 in 10.0 mi Calm Calm - N/A   Clear
8:35 AM 78.8 °F - 69.6 °F 73% 29.98 in 10.0 mi SSE 3.5 mph - N/A   Clear
8:55 AM 81.0 °F 84.2 °F 69.4 °F 68% 29.98 in 10.0 mi SSE 4.6 mph - N/A   Clear
9:15 AM 82.6 °F 85.7 °F 68.5 °F 62% 29.98 in 10.0 mi SSE 8.1 mph - N/A   Clear
9:55 AM 84.7 °F 87.6 °F 67.6 °F 56% 29.98 in 10.0 mi South 8.1 mph - N/A   Clear
10:15 AM 86.0 °F 89.1 °F 67.6 °F 54% 29.99 in 10.0 mi South 10.4 mph - N/A   Clear
10:35 AM 86.9 °F 90.3 °F 67.6 °F 53% 29.99 in 10.0 mi SSE 8.1 mph - N/A   Clear
10:55 AM 87.3 °F 90.5 °F 67.5 °F 52% 29.99 in 10.0 mi SSE 9.2 mph - N/A   Clear
11:15 AM 88.0 °F 90.7 °F 66.9 °F 49% 29.99 in 10.0 mi SSE 9.2 mph - N/A   Scattered Clouds
11:35 AM 89.6 °F 92.2 °F 66.0 °F 46% 29.98 in 10.0 mi SSE 8.1 mph - N/A   Scattered Clouds
11:55 AM 90.5 °F 92.5 °F 65.3 °F 43% 29.98 in 10.0 mi ESE 10.4 mph 16.1 mph N/A   Clear
12:15 PM 91.6 °F 93.5 °F 64.6 °F 41% 29.96 in 10.0 mi SE 11.5 mph 16.1 mph N/A   Scattered Clouds
12:35 PM 91.8 °F 92.2 °F 61.9 °F 37% 29.95 in 10.0 mi ESE 9.2 mph - N/A   Clear
12:55 PM 92.8 °F 93.5 °F 62.2 °F 36% 29.95 in 10.0 mi SSE 9.2 mph 18.4 mph N/A   Clear
1:15 PM 93.4 °F 94.3 °F 62.4 °F 36% 29.94 in 10.0 mi ESE 10.4 mph 20.7 mph N/A   Clear
1:35 PM 94.3 °F 94.5 °F 61.0 °F 33% 29.93 in 10.0 mi ESE 6.9 mph - N/A   Scattered Clouds
1:55 PM 93.0 °F 92.7 °F 60.1 °F 33% 29.93 in 10.0 mi SSE 8.1 mph - N/A   Scattered Clouds
2:15 PM 94.8 °F 94.5 °F 59.9 °F 31% 29.92 in 10.0 mi South 3.5 mph - N/A   Scattered Clouds
2:35 PM 95.2 °F 95.1 °F 59.9 °F 31% 29.91 in 10.0 mi East 4.6 mph - N/A   Scattered Clouds
2:55 PM 95.7 °F 95.5 °F 60.1 °F 30% 29.90 in 10.0 mi SSE 5.8 mph - N/A   Scattered Clouds
3:15 PM 95.9 °F 96.1 °F 61.0 °F 31% 29.90 in 10.0 mi ESE 10.4 mph - N/A   Scattered Clouds
3:35 PM 95.4 °F 95.7 °F 61.0 °F 32% 29.89 in 10.0 mi SSE 5.8 mph - N/A   Scattered Clouds
3:55 PM 95.4 °F 95.7 °F 61.0 °F 32% 29.88 in 10.0 mi ESE 8.1 mph 16.1 mph N/A   Scattered Clouds
4:15 PM 96.6 °F 96.8 °F 60.6 °F 30% 29.87 in 10.0 mi ESE 10.4 mph - N/A   Scattered Clouds
4:35 PM 95.0 °F 95.6 °F 61.5 °F 33% 29.86 in 10.0 mi ESE 11.5 mph 16.1 mph N/A   Scattered Clouds
4:55 PM 96.4 °F 97.0 °F 61.5 °F 31% 29.85 in 10.0 mi SE 8.1 mph - N/A   Clear
5:15 PM 97.0 °F 97.8 °F 62.1 °F 31% 29.85 in 10.0 mi SE 11.5 mph 18.4 mph N/A   Scattered Clouds
5:35 PM 96.3 °F 96.7 °F 61.2 °F 31% 29.84 in 10.0 mi ESE 10.4 mph 16.1 mph N/A   Scattered Clouds
5:55 PM 96.1 °F 96.4 °F 61.0 °F 31% 29.84 in 10.0 mi ESE 12.7 mph - N/A   Scattered Clouds
6:15 PM 95.5 °F 96.0 °F 61.2 °F 32% 29.84 in 10.0 mi ESE 12.7 mph - N/A   Clear
6:35 PM 95.0 °F 95.2 °F 60.4 °F 32% 29.83 in 10.0 mi SE 11.5 mph - N/A   Scattered Clouds
6:55 PM 93.4 °F 92.8 °F 59.0 °F 32% 29.83 in 10.0 mi SE 12.7 mph 18.4 mph N/A   Clear
7:15 PM 92.3 °F 94.3 °F 64.6 °F 40% 29.84 in 10.0 mi SE 12.7 mph 19.6 mph N/A   Clear
7:35 PM 90.7 °F 92.8 °F 65.7 °F 43% 29.84 in 10.0 mi SE 15.0 mph 21.9 mph N/A   Scattered Clouds
7:55 PM 89.4 °F 91.5 °F 65.3 °F 45% 29.85 in 10.0 mi SE 10.4 mph - N/A   Clear
8:15 PM 88.2 °F 90.3 °F 65.7 °F 47% 29.85 in 10.0 mi SE 11.5 mph - N/A   Clear
8:35 PM 87.6 °F 90.1 °F 66.6 °F 49% 29.86 in 10.0 mi SE 10.4 mph - N/A   Clear
8:55 PM 86.7 °F 89.3 °F 66.6 °F 51% 29.88 in 10.0 mi SSE 11.5 mph 16.1 mph N/A   Clear
9:15 PM 86.0 °F 88.2 °F 66.2 °F 51% 29.89 in 10.0 mi SE 8.1 mph - N/A   Clear
9:35 PM 85.1 °F 87.4 °F 66.4 °F 53% 29.89 in 10.0 mi SE 8.1 mph - N/A   Clear
9:55 PM 84.2 °F 87.3 °F 67.8 °F 58% 29.90 in 10.0 mi SE 10.4 mph - N/A   Clear
10:15 PM 83.5 °F 86.7 °F 68.4 °F 60% 29.91 in 10.0 mi SE 9.2 mph - N/A   Clear
10:35 PM 82.9 °F 86.0 °F 68.2 °F 61% 29.91 in 10.0 mi SE 10.4 mph - N/A   Clear
10:55 PM 82.4 °F 85.4 °F 68.0 °F 62% 29.91 in 10.0 mi SE 10.4 mph - N/A   Clear
11:15 PM 82.0 °F 84.9 °F 68.0 °F 62% 29.91 in 10.0 mi SE 11.5 mph 17.3 mph N/A   Clear
11:35 PM 81.5 °F 84.4 °F 68.2 °F 64% 29.92 in 10.0 mi SE 8.1 mph - N/A   Clear
11:55 PM 81.0 °F 83.9 °F 68.7 °F 66% 29.92 in 10.0 mi SE 9.2 mph - N/A   Clear